Dobrodošli na spletni strani vremenske postaje Senovo. Vse informacije so informativnega značaja, saj vremenska postaja ni del državne mreže meteoroloških postaj. OBVESTILO: Letni količini padavin navedeni na spletni strani je potrebno prišteti 98,1 mm, zaradi izgube podatkov.


Veter Od: 11-12-2017 04:00 Do: 12-12-2017 10:59 Opozorilo za: Veter Stopnja: Oranžna info button
Dež Od: 11-12-2017 00:00 Do: 16:59 Opozorilo za: Dež Stopnja: Rumena info button

Pogled proti Armezu več informacij Pogled proti Armezu


Lisca več informacij Lisca


Radar strel več informacij blitzortung!


opozorilo za Dež več informacij rain snow radar


Obiščite še:

Template documentation
and downloads

And another site



Weather Underground, zgodovina - Tekstovno

Dnevni povzetek za Avgust 17, 2017 Enote:  Metrično    Angleško   Obe
« Predhodni Dan
Naslednji Dan »
Dnevni Tedenski Mesečni Letni Po meri
  Višja: Nižja: Povprečje:
Temperatura: 31.8 °C 17.2 °C 23.8 °C
Točka rosišča: 19.1 °C 13.6 °C 16.1 °C
Vlažnost: 92 % 38 % 65 %
Hitrost vetra: 6.9 km/h 0.0 km/h 2 km/h
Sunki vetra: 15.4 km/h - -
Veter:- - South
Zračni tlak: 1021.9 hPa 1016.8 hPa -
Padavine: 0.0 mm    
Historical Graphs
 
 
Tabelarni podarki za Avgust 17, 2017
Čas Temperatura Točka rosišča Zračni tlak Veter Hitrost vetra Sunki vetra Vlažnost Intenziteta padavin (urna)
00:02 23.2 °C 15.3 °C 1019.9 hPa ESE 5.0 km/h 15.1 km/h 61 % 0.0 mm
00:07 23.2 °C 15.3 °C 1019.9 hPa ESE 5.1 km/h 15.1 km/h 61 % 0.0 mm
00:12 23.2 °C 15.3 °C 1019.9 hPa ESE 5.5 km/h 10.1 km/h 61 % 0.0 mm
00:17 23.3 °C 15.3 °C 1019.9 hPa ESE 4.8 km/h 12.2 km/h 61 % 0.0 mm
00:22 23.2 °C 15.3 °C 1019.9 hPa SE 6.3 km/h 12.2 km/h 61 % 0.0 mm
00:27 23.2 °C 15.3 °C 1019.9 hPa SE 6.9 km/h 12.2 km/h 61 % 0.0 mm
00:32 23.1 °C 15.2 °C 1019.9 hPa SSE 5.1 km/h 10.1 km/h 61 % 0.0 mm
00:37 23.0 °C 15.3 °C 1019.9 hPa SSW 5.1 km/h 10.1 km/h 62 % 0.0 mm
00:43 22.7 °C 15.3 °C 1019.9 hPa SSW 5.6 km/h 8.7 km/h 63 % 0.0 mm
00:48 22.5 °C 15.3 °C 1019.9 hPa SW 6.1 km/h 9.3 km/h 64 % 0.0 mm
00:53 22.3 °C 15.4 °C 1019.9 hPa SW 6.0 km/h 9.3 km/h 65 % 0.0 mm
00:58 22.1 °C 15.4 °C 1019.9 hPa WSW 5.0 km/h 7.6 km/h 66 % 0.0 mm
01:03 21.9 °C 15.5 °C 1019.9 hPa SW 3.7 km/h 5.8 km/h 67 % 0.0 mm
01:08 21.7 °C 15.6 °C 1019.9 hPa SSW 1.3 km/h 4.7 km/h 68 % 0.0 mm
01:13 21.5 °C 15.6 °C 1019.9 hPa South 1.1 km/h 6.1 km/h 69 % 0.0 mm
01:18 21.3 °C 15.6 °C 1019.9 hPa South 1.0 km/h 6.1 km/h 70 % 0.0 mm
01:23 21.1 °C 15.4 °C 1019.9 hPa Calm     70 % 0.0 mm
01:28 20.9 °C 15.7 °C 1019.9 hPa Calm     72 % 0.0 mm
01:33 20.8 °C 15.6 °C 1019.9 hPa Calm     72 % 0.0 mm
01:38 20.5 °C 15.7 °C 1019.9 hPa Calm     74 % 0.0 mm
01:43 20.4 °C 15.6 °C 1019.9 hPa NE 0.8 km/h 5.5 km/h 74 % 0.0 mm
01:48 20.2 °C 15.4 °C 1019.9 hPa NE 1.0 km/h 5.5 km/h 74 % 0.0 mm
01:53 20.1 °C 15.6 °C 1019.9 hPa West 0.6 km/h 4.0 km/h 75 % 0.0 mm
01:58 20.0 °C 15.7 °C 1019.9 hPa WNW 1.3 km/h 4.3 km/h 76 % 0.0 mm
02:03 20.0 °C 15.7 °C 1019.9 hPa WNW 1.0 km/h 4.3 km/h 76 % 0.0 mm
02:08 19.9 °C 15.9 °C 1019.9 hPa NW 0.3 km/h 4.3 km/h 78 % 0.0 mm
02:13 19.8 °C 15.8 °C 1019.9 hPa NW 1.6 km/h 5.5 km/h 78 % 0.0 mm
02:18 19.7 °C 15.8 °C 1019.9 hPa NW 2.9 km/h 5.5 km/h 78 % 0.0 mm
02:23 19.7 °C 15.9 °C 1019.9 hPa NW 1.6 km/h 4.0 km/h 79 % 0.0 mm
02:28 19.7 °C 15.9 °C 1019.9 hPa West 1.6 km/h 6.9 km/h 79 % 0.0 mm
02:33 19.7 °C 16.2 °C 1019.9 hPa West 1.3 km/h 6.9 km/h 80 % 0.0 mm
02:38 19.7 °C 16.2 °C 1019.9 hPa NW 1.6 km/h 5.0 km/h 80 % 0.0 mm
02:43 19.8 °C 16.2 °C 1019.9 hPa NW 1.4 km/h 5.0 km/h 80 % 0.0 mm
02:48 19.8 °C 16.2 °C 1019.9 hPa Calm     80 % 0.0 mm
02:53 19.8 °C 16.2 °C 1019.9 hPa Calm     80 % 0.0 mm
02:58 19.8 °C 16.4 °C 1019.9 hPa Calm     81 % 0.0 mm
03:03 19.8 °C 16.4 °C 1019.9 hPa Calm     81 % 0.0 mm
03:08 19.8 °C 16.4 °C 1019.9 hPa Calm     81 % 0.0 mm
03:13 19.8 °C 16.4 °C 1019.9 hPa Calm     81 % 0.0 mm
03:18 19.8 °C 16.6 °C 1019.9 hPa Calm     82 % 0.0 mm
03:23 19.8 °C 16.6 °C 1019.9 hPa Calm   1.4 km/h 82 % 0.0 mm
03:28 19.8 °C 16.6 °C 1019.9 hPa ENE 0.6 km/h 3.2 km/h 82 % 0.0 mm
03:33 19.7 °C 16.6 °C 1019.9 hPa ENE 0.6 km/h 3.2 km/h 82 % 0.0 mm
03:38 19.7 °C 16.6 °C 1019.9 hPa WSW 0.3 km/h 4.0 km/h 82 % 0.0 mm
03:43 19.7 °C 16.6 °C 1019.9 hPa South 1.1 km/h 5.0 km/h 82 % 0.0 mm
03:48 19.7 °C 16.6 °C 1019.9 hPa ENE 0.8 km/h 5.0 km/h 82 % 0.0 mm
03:53 19.7 °C 16.7 °C 1019.9 hPa Calm     83 % 0.0 mm
03:58 19.6 °C 16.6 °C 1019.9 hPa Calm     83 % 0.0 mm
04:03 19.6 °C 16.6 °C 1019.9 hPa Calm     83 % 0.0 mm
04:08 19.6 °C 16.6 °C 1019.9 hPa Calm     83 % 0.0 mm
04:13 19.5 °C 16.6 °C 1019.9 hPa Calm     83 % 0.0 mm
04:18 19.5 °C 16.7 °C 1019.9 hPa Calm     84 % 0.0 mm
04:23 19.4 °C 16.6 °C 1019.9 hPa Calm     84 % 0.0 mm
04:29 19.4 °C 16.6 °C 1019.9 hPa Calm     84 % 0.0 mm
04:34 19.3 °C 16.7 °C 1019.9 hPa Calm     85 % 0.0 mm
04:39 19.3 °C 16.7 °C 1019.9 hPa Calm     85 % 0.0 mm
04:44 19.2 °C 16.6 °C 1019.9 hPa Calm     85 % 0.0 mm
04:49 19.2 °C 16.8 °C 1019.9 hPa Calm     86 % 0.0 mm
04:54 19.1 °C 16.5 °C 1019.9 hPa Calm     85 % 0.0 mm
04:59 19.0 °C 16.6 °C 1019.9 hPa Calm     86 % 0.0 mm
05:04 19.0 °C 16.6 °C 1019.9 hPa Calm     86 % 0.0 mm
05:09 18.9 °C 16.5 °C 1019.9 hPa Calm     86 % 0.0 mm
05:14 18.8 °C 16.6 °C 1019.9 hPa Calm     87 % 0.0 mm
05:23 18.6 °C 16.4 °C 1018.8 hPa Calm     87 % 0.0 mm
05:28 18.5 °C 16.3 °C 1018.8 hPa Calm     87 % 0.0 mm
05:33 18.4 °C 16.2 °C 1018.8 hPa Calm     87 % 0.0 mm
05:38 18.2 °C 16.0 °C 1018.8 hPa Calm     87 % 0.0 mm
05:43 18.1 °C 16.1 °C 1018.8 hPa Calm   2.1 km/h 88 % 0.0 mm
05:48 18.0 °C 15.8 °C 1019.9 hPa Calm   2.1 km/h 87 % 0.0 mm
05:53 17.9 °C 15.7 °C 1019.9 hPa ESE 0.2 km/h 3.2 km/h 87 % 0.0 mm
05:58 17.7 °C 15.7 °C 1019.9 hPa ESE 0.2 km/h 3.2 km/h 88 % 0.0 mm
06:03 17.6 °C 15.6 °C 1019.9 hPa ESE 0.3 km/h 3.2 km/h 88 % 0.0 mm
06:04 17.5 °C 15.5 °C 1019.9 hPa ESE 0.3 km/h 3.2 km/h 88 % 0.0 mm
06:09 17.5 °C 15.5 °C 1019.9 hPa ESE 0.3 km/h 3.2 km/h 88 % 0.0 mm
06:14 17.4 °C 15.4 °C 1019.9 hPa Calm   1.8 km/h 88 % 0.0 mm
06:19 17.3 °C 15.4 °C 1019.9 hPa ESE 0.3 km/h 3.5 km/h 89 % 0.0 mm
06:24 17.2 °C 15.4 °C 1019.9 hPa ESE 0.3 km/h 3.5 km/h 89 % 0.0 mm
06:29 17.2 °C 15.4 °C 1019.9 hPa Calm     89 % 0.0 mm
06:34 17.2 °C 15.6 °C 1019.9 hPa Calm     90 % 0.0 mm
06:39 17.2 °C 15.6 °C 1019.9 hPa Calm     90 % 0.0 mm
06:44 17.2 °C 15.6 °C 1019.9 hPa Calm     90 % 0.0 mm
06:49 17.2 °C 15.6 °C 1019.9 hPa Calm     90 % 0.0 mm
06:54 17.2 °C 15.6 °C 1019.9 hPa Calm     90 % 0.0 mm
06:59 17.2 °C 15.6 °C 1019.9 hPa Calm     90 % 0.0 mm
07:04 17.3 °C 15.7 °C 1019.9 hPa Calm     90 % 0.0 mm
07:09 17.4 °C 15.9 °C 1019.9 hPa Calm     91 % 0.0 mm
07:14 17.5 °C 16.0 °C 1019.9 hPa Calm     91 % 0.0 mm
07:19 17.6 °C 16.1 °C 1019.9 hPa Calm     91 % 0.0 mm
07:24 17.9 °C 16.6 °C 1019.9 hPa Calm     92 % 0.0 mm
07:29 17.9 °C 16.6 °C 1019.9 hPa Calm     92 % 0.0 mm
07:34 18.0 °C 16.5 °C 1020.9 hPa Calm     91 % 0.0 mm
07:39 18.2 °C 16.7 °C 1020.9 hPa Calm     91 % 0.0 mm
07:44 18.4 °C 16.9 °C 1020.9 hPa Calm     91 % 0.0 mm
07:49 18.6 °C 17.1 °C 1020.9 hPa ESE 0.3 km/h 2.6 km/h 91 % 0.0 mm
07:54 18.7 °C 17.2 °C 1020.9 hPa ESE 1.0 km/h 4.0 km/h 91 % 0.0 mm
07:59 19.0 °C 17.3 °C 1020.9 hPa ESE 1.3 km/h 4.7 km/h 90 % 0.0 mm
08:04 19.3 °C 17.6 °C 1020.9 hPa ESE 1.3 km/h 4.7 km/h 90 % 0.0 mm
08:09 19.5 °C 17.6 °C 1020.9 hPa ESE 1.1 km/h 4.3 km/h 89 % 0.0 mm
08:14 19.6 °C 17.7 °C 1020.9 hPa ESE 0.6 km/h 2.6 km/h 89 % 0.0 mm
08:19 19.8 °C 17.8 °C 1020.9 hPa ESE 0.2 km/h 2.6 km/h 88 % 0.0 mm
08:24 20.1 °C 17.9 °C 1020.9 hPa ESE 0.6 km/h 3.5 km/h 87 % 0.0 mm
08:29 20.4 °C 18.2 °C 1020.9 hPa ESE 1.3 km/h 3.5 km/h 87 % 0.0 mm
08:34 20.6 °C 18.0 °C 1020.9 hPa East 0.8 km/h 3.2 km/h 85 % 0.0 mm
08:39 21.0 °C 18.4 °C 1020.9 hPa East 0.2 km/h 2.1 km/h 85 % 0.0 mm
08:44 21.4 °C 18.6 °C 1020.9 hPa SSE 0.6 km/h 4.3 km/h 84 % 0.0 mm
08:49 21.9 °C 18.9 °C 1021.9 hPa SSE 1.9 km/h 4.7 km/h 83 % 0.0 mm
08:54 22.4 °C 19.0 °C 1021.9 hPa SE 3.4 km/h 6.9 km/h 81 % 0.0 mm
08:59 22.7 °C 19.1 °C 1021.9 hPa ESE 2.4 km/h 6.9 km/h 80 % 0.0 mm
09:04 23.0 °C 18.9 °C 1021.9 hPa SE 0.5 km/h 4.0 km/h 78 % 0.0 mm
09:09 23.4 °C 19.1 °C 1021.9 hPa ENE 0.3 km/h 3.2 km/h 77 % 0.0 mm
09:14 23.7 °C 19.0 °C 1021.9 hPa ESE 1.6 km/h 4.3 km/h 75 % 0.0 mm
09:19 24.0 °C 18.8 °C 1021.9 hPa SE 1.8 km/h 4.3 km/h 73 % 0.0 mm
09:24 24.3 °C 18.9 °C 1021.9 hPa SE 1.4 km/h 5.0 km/h 72 % 0.0 mm
09:29 24.6 °C 18.8 °C 1021.9 hPa ESE 1.8 km/h 5.0 km/h 70 % 0.0 mm
09:34 24.7 °C 18.6 °C 1021.9 hPa SE 1.1 km/h 4.3 km/h 69 % 0.0 mm
09:39 25.0 °C 18.9 °C 1021.9 hPa SSE 1.8 km/h 5.5 km/h 69 % 0.0 mm
09:44 25.3 °C 18.9 °C 1021.9 hPa SE 2.9 km/h 5.8 km/h 68 % 0.0 mm
09:49 25.6 °C 18.8 °C 1021.9 hPa SE 3.4 km/h 6.9 km/h 66 % 0.0 mm
09:54 25.7 °C 18.4 °C 1021.9 hPa SE 3.9 km/h 7.6 km/h 64 % 0.0 mm
09:59 26.0 °C 18.2 °C 1021.9 hPa ESE 3.1 km/h 7.6 km/h 62 % 0.0 mm
10:04 26.0 °C 16.6 °C 1021.9 hPa ESE 4.0 km/h 10.5 km/h 56 % 0.0 mm
10:09 26.1 °C 17.4 °C 1021.9 hPa ESE 5.3 km/h 10.5 km/h 59 % 0.0 mm
10:14 26.4 °C 17.7 °C 1021.9 hPa ESE 4.3 km/h 11.6 km/h 59 % 0.0 mm
10:19 26.5 °C 17.3 °C 1020.9 hPa ESE 4.8 km/h 11.6 km/h 57 % 0.0 mm
10:24 26.7 °C 17.5 °C 1020.9 hPa ESE 6.0 km/h 10.1 km/h 57 % 0.0 mm
10:29 26.7 °C 17.5 °C 1020.9 hPa ESE 5.5 km/h 10.1 km/h 57 % 0.0 mm
10:34 26.8 °C 17.3 °C 1021.9 hPa ESE 4.2 km/h 9.7 km/h 56 % 0.0 mm
10:39 27.0 °C 17.2 °C 1021.9 hPa ESE 4.5 km/h 9.7 km/h 55 % 0.0 mm
10:44 27.2 °C 17.4 °C 1021.9 hPa ESE 5.6 km/h 10.1 km/h 55 % 0.0 mm
10:49 27.4 °C 17.3 °C 1021.9 hPa ESE 6.0 km/h 10.1 km/h 54 % 0.0 mm
10:54 27.5 °C 17.4 °C 1021.9 hPa ESE 4.7 km/h 9.7 km/h 54 % 0.0 mm
10:59 27.5 °C 17.4 °C 1021.9 hPa ESE 3.4 km/h 6.9 km/h 54 % 0.0 mm
11:04 27.6 °C 16.8 °C 1021.9 hPa ESE 3.9 km/h 9.3 km/h 52 % 0.0 mm
11:09 27.6 °C 16.8 °C 1021.9 hPa East 4.0 km/h 9.3 km/h 52 % 0.0 mm
11:14 27.7 °C 16.7 °C 1021.9 hPa East 3.5 km/h 6.9 km/h 51 % 0.0 mm
11:19 27.7 °C 16.9 °C 1020.9 hPa East 3.5 km/h 8.7 km/h 52 % 0.0 mm
11:24 27.9 °C 17.1 °C 1020.9 hPa East 3.2 km/h 9.7 km/h 52 % 0.0 mm
11:29 27.9 °C 17.1 °C 1020.9 hPa ENE 4.8 km/h 10.1 km/h 52 % 0.0 mm
11:34 28.0 °C 16.9 °C 1020.9 hPa ENE 6.0 km/h 10.1 km/h 51 % 0.0 mm
11:39 27.9 °C 17.1 °C 1020.9 hPa East 4.5 km/h 10.1 km/h 52 % 0.0 mm
11:44 28.0 °C 16.9 °C 1020.9 hPa ESE 4.8 km/h 10.1 km/h 51 % 0.0 mm
11:49 28.3 °C 17.5 °C 1019.9 hPa SE 5.0 km/h 9.7 km/h 52 % 0.0 mm
11:54 28.5 °C 17.4 °C 1019.9 hPa ESE 4.3 km/h 9.0 km/h 51 % 0.0 mm
11:59 28.6 °C 17.4 °C 1019.9 hPa SE 5.1 km/h 12.2 km/h 51 % 0.0 mm
12:04 28.7 °C 17.6 °C 1019.9 hPa SSE 5.3 km/h 12.2 km/h 51 % 0.0 mm
12:09 28.8 °C 17.0 °C 1019.9 hPa SSW 3.2 km/h 10.5 km/h 49 % 0.0 mm
12:14 29.0 °C 17.5 °C 1019.9 hPa SSE 3.7 km/h 10.5 km/h 50 % 0.0 mm
12:19 29.1 °C 17.6 °C 1019.9 hPa SSE 5.1 km/h 9.3 km/h 50 % 0.0 mm
12:24 28.9 °C 17.1 °C 1019.9 hPa SW 4.2 km/h 9.3 km/h 49 % 0.0 mm
12:29 29.1 °C 16.9 °C 1019.9 hPa East 4.3 km/h 9.3 km/h 48 % 0.0 mm
12:34 29.0 °C 16.9 °C 1020.9 hPa East 3.5 km/h 9.3 km/h 48 % 0.0 mm
12:39 28.9 °C 17.1 °C 1020.9 hPa ESE 2.9 km/h 5.8 km/h 49 % 0.0 mm
12:44 29.2 °C 17.1 °C 1020.9 hPa East 3.7 km/h 9.3 km/h 48 % 0.0 mm
12:49 29.1 °C 16.6 °C 1019.9 hPa ENE 5.1 km/h 10.5 km/h 47 % 0.0 mm
12:52 29.0 °C 16.9 °C 1019.9 hPa East 5.3 km/h 10.5 km/h 48 % 0.0 mm
12:57 29.2 °C 16.7 °C 1019.9 hPa East 5.0 km/h 8.7 km/h 47 % 0.0 mm
13:02 29.0 °C 16.6 °C 1019.9 hPa East 3.2 km/h 6.4 km/h 47 % 0.0 mm
13:07 29.4 °C 17.2 °C 1018.8 hPa SE 3.5 km/h 7.9 km/h 48 % 0.0 mm
13:12 29.6 °C 17.4 °C 1018.8 hPa SE 5.5 km/h 9.3 km/h 48 % 0.0 mm
13:17 29.7 °C 17.2 °C 1018.8 hPa ESE 5.3 km/h 9.3 km/h 47 % 0.0 mm
13:22 29.7 °C 17.2 °C 1019.9 hPa West 4.3 km/h 9.3 km/h 47 % 0.0 mm
13:27 29.8 °C 17.3 °C 1019.9 hPa West 5.0 km/h 9.3 km/h 47 % 0.0 mm
13:32 30.1 °C 17.2 °C 1019.9 hPa SW 5.1 km/h 9.3 km/h 46 % 0.0 mm
13:37 30.4 °C 17.1 °C 1018.8 hPa South 4.0 km/h 9.3 km/h 45 % 0.0 mm
13:42 30.3 °C 16.7 °C 1018.8 hPa SSE 4.2 km/h 7.6 km/h 44 % 0.0 mm
13:47 30.3 °C 16.7 °C 1018.8 hPa SSE 3.5 km/h 6.4 km/h 44 % 0.0 mm
13:52 30.4 °C 16.8 °C 1020.9 hPa SSE 2.7 km/h 9.0 km/h 44 % 0.0 mm
13:57 30.6 °C 16.6 °C 1020.9 hPa SSE 4.5 km/h 11.9 km/h 43 % 0.0 mm
14:02 30.6 °C 16.6 °C 1020.9 hPa South 5.6 km/h 11.9 km/h 43 % 0.0 mm
14:07 30.8 °C 16.4 °C 1019.9 hPa South 5.0 km/h 10.5 km/h 42 % 0.0 mm
14:12 30.9 °C 16.1 °C 1019.9 hPa SE 4.8 km/h 10.5 km/h 41 % 0.0 mm
14:17 30.8 °C 16.4 °C 1019.9 hPa South 4.3 km/h 8.7 km/h 42 % 0.0 mm
14:22 30.9 °C 16.5 °C 1019.9 hPa WSW 3.9 km/h 7.9 km/h 42 % 0.0 mm
14:27 30.8 °C 16.0 °C 1019.9 hPa South 3.1 km/h 5.8 km/h 41 % 0.0 mm
14:32 30.8 °C 16.0 °C 1018.8 hPa East 3.7 km/h 9.3 km/h 41 % 0.0 mm
14:37 31.0 °C 16.2 °C 1018.8 hPa SE 5.0 km/h 9.3 km/h 41 % 0.0 mm
14:42 31.0 °C 16.2 °C 1018.8 hPa South 6.3 km/h 15.4 km/h 41 % 0.0 mm
14:47 31.1 °C 15.9 °C 1018.8 hPa South 6.3 km/h 15.4 km/h 40 % 0.0 mm
14:52 31.1 °C 15.9 °C 1018.8 hPa SSW 5.0 km/h 9.3 km/h 40 % 0.0 mm
14:57 31.0 °C 15.8 °C 1018.8 hPa WSW 6.1 km/h 10.1 km/h 40 % 0.0 mm
15:02 31.1 °C 15.5 °C 1018.2 hPa WSW 6.3 km/h 10.1 km/h 39 % 0.0 mm
15:07 31.1 °C 15.9 °C 1018.2 hPa ESE 5.1 km/h 12.6 km/h 40 % 0.0 mm
15:12 31.2 °C 16.0 °C 1018.2 hPa ESE 5.5 km/h 12.6 km/h 40 % 0.0 mm
15:17 31.3 °C 15.7 °C 1018.8 hPa SSE 4.5 km/h 9.7 km/h 39 % 0.0 mm
15:22 31.4 °C 15.8 °C 1018.8 hPa SE 2.6 km/h 7.9 km/h 39 % 0.0 mm
15:27 31.4 °C 15.8 °C 1018.8 hPa SSE 2.9 km/h 7.9 km/h 39 % 0.0 mm
15:32 31.4 °C 15.8 °C 1018.2 hPa WSW 4.2 km/h 7.6 km/h 39 % 0.0 mm
15:37 31.3 °C 15.7 °C 1018.2 hPa SW 4.2 km/h 10.5 km/h 39 % 0.0 mm
15:42 31.2 °C 15.6 °C 1018.2 hPa ESE 5.0 km/h 10.5 km/h 39 % 0.0 mm
15:47 31.3 °C 15.7 °C 1018.2 hPa SE 4.7 km/h 10.1 km/h 39 % 0.0 mm
15:52 31.4 °C 15.8 °C 1018.2 hPa South 3.4 km/h 6.9 km/h 39 % 0.0 mm
15:57 31.5 °C 15.9 °C 1018.2 hPa SSE 3.7 km/h 7.6 km/h 39 % 0.0 mm
16:02 31.5 °C 15.9 °C 1018.2 hPa East 3.5 km/h 7.6 km/h 39 % 0.0 mm
16:07 31.5 °C 15.9 °C 1018.2 hPa SE 4.2 km/h 10.5 km/h 39 % 0.0 mm
16:08 31.5 °C 15.9 °C 1018.2 hPa SE 4.2 km/h 10.5 km/h 39 % 0.0 mm
16:13 31.6 °C 15.9 °C 1018.2 hPa South 5.1 km/h 10.5 km/h 39 % 0.0 mm
16:18 31.6 °C 15.6 °C 1018.2 hPa SSE 5.5 km/h 9.0 km/h 38 % 0.0 mm
16:23 31.5 °C 15.4 °C 1018.2 hPa SE 3.4 km/h 9.0 km/h 38 % 0.0 mm
16:28 31.5 °C 15.4 °C 1018.2 hPa South 3.2 km/h 9.0 km/h 38 % 0.0 mm
16:33 31.5 °C 15.4 °C 1018.2 hPa SSW 5.0 km/h 9.0 km/h 38 % 0.0 mm
16:38 31.5 °C 15.4 °C 1018.2 hPa SSW 2.9 km/h 6.9 km/h 38 % 0.0 mm
16:43 31.6 °C 15.6 °C 1018.2 hPa SW 1.6 km/h 4.7 km/h 38 % 0.0 mm
16:48 31.5 °C 15.4 °C 1018.2 hPa SSW 1.3 km/h 4.7 km/h 38 % 0.0 mm
16:53 31.7 °C 16.1 °C 1018.2 hPa SSW 0.5 km/h 3.2 km/h 39 % 0.0 mm
16:58 31.8 °C 15.7 °C 1018.2 hPa South 1.3 km/h 6.4 km/h 38 % 0.0 mm
17:03 31.6 °C 15.6 °C 1018.2 hPa South 3.4 km/h 6.4 km/h 38 % 0.0 mm
17:08 31.6 °C 15.6 °C 1018.2 hPa SSE 5.0 km/h 10.1 km/h 38 % 0.0 mm
17:13 31.7 °C 15.6 °C 1018.2 hPa SE 5.6 km/h 10.1 km/h 38 % 0.0 mm
17:18 31.7 °C 15.6 °C 1018.2 hPa ESE 5.6 km/h 9.3 km/h 38 % 0.0 mm
17:23 31.7 °C 15.6 °C 1018.2 hPa ESE 5.6 km/h 9.7 km/h 38 % 0.0 mm
17:28 31.5 °C 15.4 °C 1018.2 hPa SE 3.5 km/h 9.7 km/h 38 % 0.0 mm
17:29 31.5 °C 15.4 °C 1018.2 hPa SE 3.5 km/h 9.7 km/h 38 % 0.0 mm
17:34 31.6 °C 15.6 °C 1018.2 hPa South 2.7 km/h 6.4 km/h 38 % 0.0 mm
17:39 31.4 °C 15.4 °C 1018.2 hPa South 3.5 km/h 6.9 km/h 38 % 0.0 mm
17:44 31.3 °C 15.3 °C 1018.2 hPa SSE 3.2 km/h 6.9 km/h 38 % 0.0 mm
17:49 31.2 °C 15.2 °C 1018.2 hPa SSE 1.9 km/h 4.7 km/h 38 % 0.0 mm
17:54 31.0 °C 15.0 °C 1018.2 hPa SE 1.0 km/h 4.7 km/h 38 % 0.0 mm
17:59 30.6 °C 15.1 °C 1018.2 hPa ESE 2.3 km/h 7.9 km/h 39 % 0.0 mm
18:04 30.3 °C 14.4 °C 1016.8 hPa ESE 3.9 km/h 9.0 km/h 38 % 0.0 mm
18:09 29.9 °C 14.4 °C 1016.8 hPa SSE 3.9 km/h 9.0 km/h 39 % 0.0 mm
18:14 29.5 °C 14.1 °C 1016.8 hPa South 2.7 km/h 6.1 km/h 39 % 0.0 mm
18:19 29.1 °C 13.7 °C 1018.2 hPa SSE 1.8 km/h 5.0 km/h 39 % 0.0 mm
18:24 28.6 °C 14.1 °C 1018.2 hPa SSE 1.1 km/h 5.0 km/h 41 % 0.0 mm
18:29 28.3 °C 13.8 °C 1018.2 hPa NW 1.1 km/h 5.5 km/h 41 % 0.0 mm
18:34 27.7 °C 13.6 °C 1018.2 hPa NW 1.1 km/h 5.5 km/h 42 % 0.0 mm
18:39 27.2 °C 13.6 °C 1018.2 hPa WNW 0.8 km/h 4.0 km/h 43 % 0.0 mm
18:44 26.9 °C 13.6 °C 1018.2 hPa NW 1.8 km/h 4.0 km/h 44 % 0.0 mm
18:49 26.5 °C 13.6 °C 1016.8 hPa NNW 1.6 km/h 4.0 km/h 45 % 0.0 mm
18:54 26.1 °C 14.2 °C 1016.8 hPa NNW 1.1 km/h 4.0 km/h 48 % 0.0 mm
18:59 25.9 °C 14.7 °C 1016.8 hPa NW 0.8 km/h 4.0 km/h 50 % 0.0 mm
19:04 25.6 °C 14.4 °C 1016.8 hPa NW 0.2 km/h 2.1 km/h 50 % 0.0 mm
19:09 25.3 °C 14.7 °C 1016.8 hPa NW 0.2 km/h 2.1 km/h 52 % 0.0 mm
19:14 25.0 °C 14.8 °C 1016.8 hPa NW 0.2 km/h 3.2 km/h 53 % 0.0 mm
19:19 24.7 °C 15.3 °C 1018.2 hPa WNW 0.6 km/h 5.0 km/h 56 % 0.0 mm
19:24 24.4 °C 15.1 °C 1018.2 hPa WNW 1.4 km/h 5.0 km/h 56 % 0.0 mm
19:29 24.2 °C 14.9 °C 1018.2 hPa NNW 1.9 km/h 4.7 km/h 56 % 0.0 mm
19:34 23.9 °C 15.4 °C 1018.2 hPa NNW 2.1 km/h 5.5 km/h 59 % 0.0 mm
19:39 23.7 °C 15.2 °C 1018.2 hPa NNW 2.1 km/h 5.5 km/h 59 % 0.0 mm
19:44 23.4 °C 15.4 °C 1018.2 hPa NNW 1.1 km/h 5.0 km/h 61 % 0.0 mm
19:54 22.9 °C 15.5 °C 1016.8 hPa NW 0.5 km/h 4.7 km/h 63 % 0.0 mm
19:59 22.7 °C 15.6 °C 1016.8 hPa WNW 0.8 km/h 5.5 km/h 64 % 0.0 mm
20:04 22.5 °C 15.6 °C 1018.2 hPa WNW 1.0 km/h 5.5 km/h 65 % 0.0 mm
20:09 22.2 °C 15.8 °C 1018.2 hPa WNW 0.2 km/h 3.2 km/h 67 % 0.0 mm
20:14 22.0 °C 15.6 °C 1018.2 hPa Calm     67 % 0.0 mm
20:19 21.8 °C 15.6 °C 1018.2 hPa Calm     68 % 0.0 mm
20:24 21.6 °C 15.7 °C 1018.2 hPa Calm     69 % 0.0 mm
20:34 21.2 °C 15.5 °C 1018.2 hPa Calm     70 % 0.0 mm
20:39 21.1 °C 15.6 °C 1018.2 hPa Calm     71 % 0.0 mm
20:44 20.9 °C 15.4 °C 1018.2 hPa Calm     71 % 0.0 mm
20:49 20.7 °C 15.4 °C 1018.8 hPa Calm     72 % 0.0 mm
20:54 20.6 °C 15.4 °C 1018.8 hPa Calm     72 % 0.0 mm
20:59 20.4 °C 15.4 °C 1018.8 hPa Calm     73 % 0.0 mm
21:04 20.3 °C 15.5 °C 1018.8 hPa Calm     74 % 0.0 mm
21:09 20.2 °C 15.4 °C 1018.8 hPa Calm     74 % 0.0 mm
21:14 20.1 °C 15.6 °C 1018.8 hPa Calm     75 % 0.0 mm
21:19 20.0 °C 15.4 °C 1018.8 hPa Calm     75 % 0.0 mm
21:24 19.9 °C 15.6 °C 1018.8 hPa Calm     76 % 0.0 mm
21:29 19.8 °C 15.4 °C 1018.8 hPa NW 0.2 km/h 2.6 km/h 76 % 0.0 mm
21:34 19.7 °C 15.8 °C 1018.8 hPa NW 0.2 km/h 2.6 km/h 78 % 0.0 mm
21:39 19.6 °C 15.7 °C 1018.8 hPa Calm     78 % 0.0 mm
21:44 19.5 °C 15.6 °C 1018.8 hPa Calm     78 % 0.0 mm
21:49 19.4 °C 15.4 °C 1019.9 hPa Calm     78 % 0.0 mm
21:54 19.3 °C 15.4 °C 1019.9 hPa Calm     78 % 0.0 mm
22:00 19.2 °C 15.4 °C 1019.9 hPa Calm   2.1 km/h 79 % 0.0 mm
22:05 19.0 °C 15.3 °C 1019.9 hPa Calm   2.1 km/h 79 % 0.0 mm
22:10 19.0 °C 15.4 °C 1019.9 hPa Calm     80 % 0.0 mm
22:15 19.0 °C 15.4 °C 1019.9 hPa Calm     80 % 0.0 mm
22:20 18.9 °C 15.4 °C 1019.9 hPa Calm     80 % 0.0 mm
22:25 18.8 °C 15.4 °C 1019.9 hPa Calm     81 % 0.0 mm
22:30 18.7 °C 15.4 °C 1019.9 hPa Calm     81 % 0.0 mm
22:35 18.7 °C 15.4 °C 1019.9 hPa Calm     81 % 0.0 mm
22:40 18.6 °C 15.3 °C 1019.9 hPa Calm     81 % 0.0 mm
22:45 18.6 °C 15.3 °C 1019.9 hPa Calm     81 % 0.0 mm
22:50 18.5 °C 15.2 °C 1019.9 hPa Calm     81 % 0.0 mm
22:55 18.4 °C 15.1 °C 1019.9 hPa Calm     81 % 0.0 mm
23:00 18.3 °C 15.2 °C 1019.9 hPa Calm     82 % 0.0 mm
23:05 18.2 °C 15.1 °C 1019.9 hPa Calm     82 % 0.0 mm
23:10 18.2 °C 15.1 °C 1019.9 hPa Calm     82 % 0.0 mm
23:15 18.1 °C 15.0 °C 1019.9 hPa Calm     82 % 0.0 mm
23:20 18.0 °C 14.9 °C 1019.9 hPa Calm     82 % 0.0 mm
23:25 17.9 °C 14.9 °C 1019.9 hPa Calm     83 % 0.0 mm
23:30 17.9 °C 14.9 °C 1019.9 hPa Calm     83 % 0.0 mm
23:35 17.9 °C 14.9 °C 1019.9 hPa Calm     83 % 0.0 mm
23:40 17.9 °C 14.9 °C 1019.9 hPa Calm     83 % 0.0 mm
23:45 17.8 °C 15.1 °C 1019.9 hPa Calm     84 % 0.0 mm
23:50 17.8 °C 15.1 °C 1019.9 hPa Calm     84 % 0.0 mm
23:52 17.7 °C 15.2 °C 1019.9 hPa Calm     85 % 0.0 mm
23:57 17.7 °C 15.2 °C 1019.9 hPa Calm     85 % 0.0 mm
Vremenska postaja Senovo
Podatki zbrani iz Weather Underground - 3 mb

Script developed by  Jim McMurry - jmcmurry@mwt.net Adapted for the template by  Wim van der Kuil - Leuven-Template.eu

Vremenski podatki so objavljeni na:

WeatherCloud

Weather Underground

AWEKAS

HAMweather, WeatherForYou, PWS Weather

MapView

Geostik

Slovenia weather network

Oprema, ki se uporablja:

Vremenski program
Cumulus

Cumulus